sensor_id;sensor_type;location;lat;lon;timestamp;P1;P2;P0
69123;PMS5003;56232;53.384;-2.732;2023-03-01T00:02:02;2;2;
69123;PMS5003;56232;53.384;-2.732;2023-03-01T00:04:27;4;3;
69123;PMS5003;56232;53.384;-2.732;2023-03-01T00:06:53;4;3;
69123;PMS5003;56232;53.384;-2.732;2023-03-01T00:09:19;2;2;
69123;PMS5003;56232;53.384;-2.732;2023-03-01T00:11:45;2;2;
69123;PMS5003;56232;53.384;-2.732;2023-03-01T00:14:11;2;2;
69123;PMS5003;56232;53.384;-2.732;2023-03-01T00:16:37;2;1;
69123;PMS5003;56232;53.384;-2.732;2023-03-01T00:19:02;2;2;
69123;PMS5003;56232;53.384;-2.732;2023-03-01T00:21:28;1;1;
69123;PMS5003;56232;53.384;-2.732;2023-03-01T00:23:54;3;2;
69123;PMS5003;56232;53.384;-2.732;2023-03-01T00:26:20;2;2;
69123;PMS5003;56232;53.384;-2.732;2023-03-01T00:28:45;1;1;
69123;PMS5003;56232;53.384;-2.732;2023-03-01T00:31:12;2;1;
69123;PMS5003;56232;53.384;-2.732;2023-03-01T00:33:37;3;3;
69123;PMS5003;56232;53.384;-2.732;2023-03-01T00:36:03;6;6;
69123;PMS5003;56232;53.384;-2.732;2023-03-01T00:38:28;6;5;
69123;PMS5003;56232;53.384;-2.732;2023-03-01T00:40:54;2;1;
69123;PMS5003;56232;53.384;-2.732;2023-03-01T00:43:20;0;0;
69123;PMS5003;56232;53.384;-2.732;2023-03-01T00:45:45;1;1;
69123;PMS5003;56232;53.384;-2.732;2023-03-01T00:48:11;1;1;
69123;PMS5003;56232;53.384;-2.732;2023-03-01T00:50:37;5;3;
69123;PMS5003;56232;53.384;-2.732;2023-03-01T00:53:02;4;3;
69123;PMS5003;56232;53.384;-2.732;2023-03-01T00:55:28;4;4;
69123;PMS5003;56232;53.384;-2.732;2023-03-01T00:57:54;2;2;
69123;PMS5003;56232;53.384;-2.732;2023-03-01T01:00:20;1;1;
69123;PMS5003;56232;53.384;-2.732;2023-03-01T01:02:46;1;0;
69123;PMS5003;56232;53.384;-2.732;2023-03-01T01:05:12;1;1;
69123;PMS5003;56232;53.384;-2.732;2023-03-01T01:07:38;3;3;
69123;PMS5003;56232;53.384;-2.732;2023-03-01T01:10:03;1;1;
69123;PMS5003;56232;53.384;-2.732;2023-03-01T01:12:29;1;1;
69123;PMS5003;56232;53.384;-2.732;2023-03-01T01:14:54;1;1;
69123;PMS5003;56232;53.384;-2.732;2023-03-01T01:17:20;1;1;
69123;PMS5003;56232;53.384;-2.732;2023-03-01T01:19:46;0;0;
69123;PMS5003;56232;53.384;-2.732;2023-03-01T01:22:12;1;1;
69123;PMS5003;56232;53.384;-2.732;2023-03-01T01:29:30;1;1;
69123;PMS5003;56232;53.384;-2.732;2023-03-01T01:31:55;1;1;
69123;PMS5003;56232;53.384;-2.732;2023-03-01T01:34:21;1;1;
69123;PMS5003;56232;53.384;-2.732;2023-03-01T01:36:47;2;2;
69123;PMS5003;56232;53.384;-2.732;2023-03-01T01:39:12;1;1;
69123;PMS5003;56232;53.384;-2.732;2023-03-01T01:41:39;1;1;
69123;PMS5003;56232;53.384;-2.732;2023-03-01T01:46:30;1;1;
69123;PMS5003;56232;53.384;-2.732;2023-03-01T01:48:57;0;0;
69123;PMS5003;56232;53.384;-2.732;2023-03-01T01:51:23;2;2;
69123;PMS5003;56232;53.384;-2.732;2023-03-01T01:53:47;1;1;
69123;PMS5003;56232;53.384;-2.732;2023-03-01T01:56:13;1;1;
69123;PMS5003;56232;53.384;-2.732;2023-03-01T01:58:39;1;1;
69123;PMS5003;56232;53.384;-2.732;2023-03-01T02:01:04;1;1;
69123;PMS5003;56232;53.384;-2.732;2023-03-01T02:03:31;1;1;
69123;PMS5003;56232;53.384;-2.732;2023-03-01T02:05:57;1;1;
69123;PMS5003;56232;53.384;-2.732;2023-03-01T02:08:22;0;0;
69123;PMS5003;56232;53.384;-2.732;2023-03-01T02:10:48;1;1;
69123;PMS5003;56232;53.384;-2.732;2023-03-01T02:13:13;1;0;
69123;PMS5003;56232;53.384;-2.732;2023-03-01T02:15:40;0;0;
69123;PMS5003;56232;53.384;-2.732;2023-03-01T02:18:05;0;0;
69123;PMS5003;56232;53.384;-2.732;2023-03-01T02:20:32;0;0;
69123;PMS5003;56232;53.384;-2.732;2023-03-01T02:22:57;0;0;
69123;PMS5003;56232;53.384;-2.732;2023-03-01T02:25:26;0;0;
69123;PMS5003;56232;53.384;-2.732;2023-03-01T02:27:49;0;0;
69123;PMS5003;56232;53.384;-2.732;2023-03-01T02:30:14;0;0;
69123;PMS5003;56232;53.384;-2.732;2023-03-01T02:32:40;1;1;
69123;PMS5003;56232;53.384;-2.732;2023-03-01T02:35:06;1;0;
69123;PMS5003;56232;53.384;-2.732;2023-03-01T02:37:31;0;0;
69123;PMS5003;56232;53.384;-2.732;2023-03-01T02:39:59;1;1;
69123;PMS5003;56232;53.384;-2.732;2023-03-01T02:42:23;0;0;
69123;PMS5003;56232;53.384;-2.732;2023-03-01T02:44:49;0;0;
69123;PMS5003;56232;53.384;-2.732;2023-03-01T02:47:14;0;0;
69123;PMS5003;56232;53.384;-2.732;2023-03-01T02:49:40;0;0;
69123;PMS5003;56232;53.384;-2.732;2023-03-01T02:52:09;0;0;
69123;PMS5003;56232;53.384;-2.732;2023-03-01T02:54:33;0;0;
69123;PMS5003;56232;53.384;-2.732;2023-03-01T02:56:58;0;0;
69123;PMS5003;56232;53.384;-2.732;2023-03-01T02:59:24;0;0;
69123;PMS5003;56232;53.384;-2.732;2023-03-01T03:01:49;0;0;
69123;PMS5003;56232;53.384;-2.732;2023-03-01T03:04:16;0;0;
69123;PMS5003;56232;53.384;-2.732;2023-03-01T03:06:41;0;0;
69123;PMS5003;56232;53.384;-2.732;2023-03-01T03:09:07;0;0;
69123;PMS5003;56232;53.384;-2.732;2023-03-01T03:11:32;0;0;
69123;PMS5003;56232;53.384;-2.732;2023-03-01T03:13:59;0;0;
69123;PMS5003;56232;53.384;-2.732;2023-03-01T03:16:24;2;1;
69123;PMS5003;56232;53.384;-2.732;2023-03-01T03:18:50;1;0;
69123;PMS5003;56232;53.384;-2.732;2023-03-01T03:21:16;0;0;
69123;PMS5003;56232;53.384;-2.732;2023-03-01T03:23:41;2;2;
69123;PMS5003;56232;53.384;-2.732;2023-03-01T03:26:07;1;1;
69123;PMS5003;56232;53.384;-2.732;2023-03-01T03:28:33;0;0;
69123;PMS5003;56232;53.384;-2.732;2023-03-01T03:30:59;2;2;
69123;PMS5003;56232;53.384;-2.732;2023-03-01T03:33:24;3;3;
69123;PMS5003;56232;53.384;-2.732;2023-03-01T03:35:50;4;4;
69123;PMS5003;56232;53.384;-2.732;2023-03-01T03:38:17;6;5;
69123;PMS5003;56232;53.384;-2.732;2023-03-01T03:40:43;9;8;
69123;PMS5003;56232;53.384;-2.732;2023-03-01T03:43:10;6;6;
69123;PMS5003;56232;53.384;-2.732;2023-03-01T03:45:33;4;3;
69123;PMS5003;56232;53.384;-2.732;2023-03-01T03:48:00;2;2;
69123;PMS5003;56232;53.384;-2.732;2023-03-01T03:50:25;4;4;
69123;PMS5003;56232;53.384;-2.732;2023-03-01T03:52:51;4;3;
69123;PMS5003;56232;53.384;-2.732;2023-03-01T03:55:17;4;3;
69123;PMS5003;56232;53.384;-2.732;2023-03-01T03:57:42;6;5;
69123;PMS5003;56232;53.384;-2.732;2023-03-01T04:00:11;8;8;
69123;PMS5003;56232;53.384;-2.732;2023-03-01T04:02:34;11;9;
69123;PMS5003;56232;53.384;-2.732;2023-03-01T04:05:00;11;9;
69123;PMS5003;56232;53.384;-2.732;2023-03-01T04:07:25;13;9;
69123;PMS5003;56232;53.384;-2.732;2023-03-01T04:09:51;8;6;
69123;PMS5003;56232;53.384;-2.732;2023-03-01T04:12:17;7;6;
69123;PMS5003;56232;53.384;-2.732;2023-03-01T04:14:43;7;5;
69123;PMS5003;56232;53.384;-2.732;2023-03-01T04:17:08;6;6;
69123;PMS5003;56232;53.384;-2.732;2023-03-01T04:19:34;3;3;
69123;PMS5003;56232;53.384;-2.732;2023-03-01T04:22:00;2;2;
69123;PMS5003;56232;53.384;-2.732;2023-03-01T04:24:25;1;1;
69123;PMS5003;56232;53.384;-2.732;2023-03-01T04:26:51;2;2;
69123;PMS5003;56232;53.384;-2.732;2023-03-01T04:29:17;0;0;
69123;PMS5003;56232;53.384;-2.732;2023-03-01T04:31:43;1;1;
69123;PMS5003;56232;53.384;-2.732;2023-03-01T04:34:08;1;1;
69123;PMS5003;56232;53.384;-2.732;2023-03-01T04:36:34;2;2;
69123;PMS5003;56232;53.384;-2.732;2023-03-01T04:39:00;5;4;
69123;PMS5003;56232;53.384;-2.732;2023-03-01T04:41:26;8;6;
69123;PMS5003;56232;53.384;-2.732;2023-03-01T04:43:52;8;8;
69123;PMS5003;56232;53.384;-2.732;2023-03-01T04:46:18;9;8;
69123;PMS5003;56232;53.384;-2.732;2023-03-01T04:48:44;7;6;
69123;PMS5003;56232;53.384;-2.732;2023-03-01T04:51:09;2;2;
69123;PMS5003;56232;53.384;-2.732;2023-03-01T04:53:35;1;1;
69123;PMS5003;56232;53.384;-2.732;2023-03-01T04:56:00;2;1;
69123;PMS5003;56232;53.384;-2.732;2023-03-01T04:58:26;1;1;
69123;PMS5003;56232;53.384;-2.732;2023-03-01T05:00:52;1;1;
69123;PMS5003;56232;53.384;-2.732;2023-03-01T05:03:18;2;1;
69123;PMS5003;56232;53.384;-2.732;2023-03-01T05:05:45;1;1;
69123;PMS5003;56232;53.384;-2.732;2023-03-01T05:08:09;1;1;
69123;PMS5003;56232;53.384;-2.732;2023-03-01T05:10:35;2;2;
69123;PMS5003;56232;53.384;-2.732;2023-03-01T05:13:02;5;3;
69123;PMS5003;56232;53.384;-2.732;2023-03-01T05:15:28;5;4;
69123;PMS5003;56232;53.384;-2.732;2023-03-01T05:17:53;5;5;
69123;PMS5003;56232;53.384;-2.732;2023-03-01T05:20:18;3;2;
69123;PMS5003;56232;53.384;-2.732;2023-03-01T05:22:44;2;2;
69123;PMS5003;56232;53.384;-2.732;2023-03-01T05:25:10;3;2;
69123;PMS5003;56232;53.384;-2.732;2023-03-01T05:27:36;1;1;
69123;PMS5003;56232;53.384;-2.732;2023-03-01T05:30:02;2;2;
69123;PMS5003;56232;53.384;-2.732;2023-03-01T05:32:27;1;1;
69123;PMS5003;56232;53.384;-2.732;2023-03-01T05:34:53;2;2;
69123;PMS5003;56232;53.384;-2.732;2023-03-01T05:37:19;1;1;
69123;PMS5003;56232;53.384;-2.732;2023-03-01T05:39:45;2;2;
69123;PMS5003;56232;53.384;-2.732;2023-03-01T05:42:11;1;1;
69123;PMS5003;56232;53.384;-2.732;2023-03-01T05:44:36;1;1;
69123;PMS5003;56232;53.384;-2.732;2023-03-01T05:47:02;1;1;
69123;PMS5003;56232;53.384;-2.732;2023-03-01T05:49:28;3;3;
69123;PMS5003;56232;53.384;-2.732;2023-03-01T05:51:54;2;1;
69123;PMS5003;56232;53.384;-2.732;2023-03-01T05:54:20;3;3;
69123;PMS5003;56232;53.384;-2.732;2023-03-01T05:56:45;1;1;
69123;PMS5003;56232;53.384;-2.732;2023-03-01T05:59:11;2;2;
69123;PMS5003;56232;53.384;-2.732;2023-03-01T06:01:37;1;1;
69123;PMS5003;56232;53.384;-2.732;2023-03-01T06:04:03;1;1;
69123;PMS5003;56232;53.384;-2.732;2023-03-01T06:06:29;2;2;
69123;PMS5003;56232;53.384;-2.732;2023-03-01T06:08:54;2;2;
69123;PMS5003;56232;53.384;-2.732;2023-03-01T06:11:20;2;2;
69123;PMS5003;56232;53.384;-2.732;2023-03-01T06:13:46;2;2;
69123;PMS5003;56232;53.384;-2.732;2023-03-01T06:16:12;1;1;
69123;PMS5003;56232;53.384;-2.732;2023-03-01T06:18:37;2;1;
69123;PMS5003;56232;53.384;-2.732;2023-03-01T06:21:03;4;3;
69123;PMS5003;56232;53.384;-2.732;2023-03-01T06:23:29;3;3;
69123;PMS5003;56232;53.384;-2.732;2023-03-01T06:25:55;3;2;
69123;PMS5003;56232;53.384;-2.732;2023-03-01T06:28:20;3;2;
69123;PMS5003;56232;53.384;-2.732;2023-03-01T06:30:46;2;2;
69123;PMS5003;56232;53.384;-2.732;2023-03-01T06:33:12;2;2;
69123;PMS5003;56232;53.384;-2.732;2023-03-01T06:35:38;4;3;
69123;PMS5003;56232;53.384;-2.732;2023-03-01T06:38:04;3;3;
69123;PMS5003;56232;53.384;-2.732;2023-03-01T06:40:30;3;3;
69123;PMS5003;56232;53.384;-2.732;2023-03-01T06:42:55;3;3;
69123;PMS5003;56232;53.384;-2.732;2023-03-01T06:45:21;2;2;
69123;PMS5003;56232;53.384;-2.732;2023-03-01T06:47:47;3;3;
69123;PMS5003;56232;53.384;-2.732;2023-03-01T06:50:13;3;3;
69123;PMS5003;56232;53.384;-2.732;2023-03-01T06:52:38;8;8;
69123;PMS5003;56232;53.384;-2.732;2023-03-01T06:55:05;10;9;
69123;PMS5003;56232;53.384;-2.732;2023-03-01T06:57:30;11;10;
69123;PMS5003;56232;53.384;-2.732;2023-03-01T06:59:55;17;12;
69123;PMS5003;56232;53.384;-2.732;2023-03-01T07:02:21;25;16;
69123;PMS5003;56232;53.384;-2.732;2023-03-01T07:04:48;12;12;
69123;PMS5003;56232;53.384;-2.732;2023-03-01T07:07:13;14;14;
69123;PMS5003;56232;53.384;-2.732;2023-03-01T07:09:38;19;16;
69123;PMS5003;56232;53.384;-2.732;2023-03-01T07:12:04;15;14;
69123;PMS5003;56232;53.384;-2.732;2023-03-01T07:14:30;9;8;
69123;PMS5003;56232;53.384;-2.732;2023-03-01T07:16:56;5;5;
69123;PMS5003;56232;53.384;-2.732;2023-03-01T07:19:21;8;7;
69123;PMS5003;56232;53.384;-2.732;2023-03-01T07:21:47;11;7;
69123;PMS5003;56232;53.384;-2.732;2023-03-01T07:24:13;5;5;
69123;PMS5003;56232;53.384;-2.732;2023-03-01T07:26:38;3;3;
69123;PMS5003;56232;53.384;-2.732;2023-03-01T07:29:05;6;6;
69123;PMS5003;56232;53.384;-2.732;2023-03-01T07:31:30;12;11;
69123;PMS5003;56232;53.384;-2.732;2023-03-01T07:33:56;11;11;
69123;PMS5003;56232;53.384;-2.732;2023-03-01T07:36:22;20;18;
69123;PMS5003;56232;53.384;-2.732;2023-03-01T07:38:47;19;18;
69123;PMS5003;56232;53.384;-2.732;2023-03-01T07:41:13;11;11;
69123;PMS5003;56232;53.384;-2.732;2023-03-01T07:43:38;6;6;
69123;PMS5003;56232;53.384;-2.732;2023-03-01T07:46:04;9;5;
69123;PMS5003;56232;53.384;-2.732;2023-03-01T07:48:30;4;4;
69123;PMS5003;56232;53.384;-2.732;2023-03-01T07:50:57;2;2;
69123;PMS5003;56232;53.384;-2.732;2023-03-01T07:53:21;11;8;
69123;PMS5003;56232;53.384;-2.732;2023-03-01T07:55:46;8;6;
69123;PMS5003;56232;53.384;-2.732;2023-03-01T07:58:12;4;4;
69123;PMS5003;56232;53.384;-2.732;2023-03-01T08:00:38;3;3;
69123;PMS5003;56232;53.384;-2.732;2023-03-01T08:03:04;2;2;
69123;PMS5003;56232;53.384;-2.732;2023-03-01T08:05:29;2;2;
69123;PMS5003;56232;53.384;-2.732;2023-03-01T08:07:55;2;2;
69123;PMS5003;56232;53.384;-2.732;2023-03-01T08:10:21;1;1;
69123;PMS5003;56232;53.384;-2.732;2023-03-01T08:12:46;8;7;
69123;PMS5003;56232;53.384;-2.732;2023-03-01T08:15:11;6;6;
69123;PMS5003;56232;53.384;-2.732;2023-03-01T08:17:37;8;7;
69123;PMS5003;56232;53.384;-2.732;2023-03-01T08:20:03;5;5;
69123;PMS5003;56232;53.384;-2.732;2023-03-01T08:22:29;6;6;
69123;PMS5003;56232;53.384;-2.732;2023-03-01T08:24:54;10;9;
69123;PMS5003;56232;53.384;-2.732;2023-03-01T08:27:20;7;6;
69123;PMS5003;56232;53.384;-2.732;2023-03-01T08:29:46;3;3;
69123;PMS5003;56232;53.384;-2.732;2023-03-01T08:32:11;4;4;
69123;PMS5003;56232;53.384;-2.732;2023-03-01T08:34:37;3;2;
69123;PMS5003;56232;53.384;-2.732;2023-03-01T08:37:03;3;2;
69123;PMS5003;56232;53.384;-2.732;2023-03-01T08:39:29;4;3;
69123;PMS5003;56232;53.384;-2.732;2023-03-01T08:41:54;4;4;
69123;PMS5003;56232;53.384;-2.732;2023-03-01T08:44:20;5;4;
69123;PMS5003;56232;53.384;-2.732;2023-03-01T08:46:46;7;6;
69123;PMS5003;56232;53.384;-2.732;2023-03-01T08:49:12;6;4;
69123;PMS5003;56232;53.384;-2.732;2023-03-01T08:51:37;3;3;
69123;PMS5003;56232;53.384;-2.732;2023-03-01T08:54:03;3;2;
69123;PMS5003;56232;53.384;-2.732;2023-03-01T08:56:30;3;3;
69123;PMS5003;56232;53.384;-2.732;2023-03-01T08:58:55;3;3;
69123;PMS5003;56232;53.384;-2.732;2023-03-01T09:01:20;2;2;
69123;PMS5003;56232;53.384;-2.732;2023-03-01T09:03:46;3;3;
69123;PMS5003;56232;53.384;-2.732;2023-03-01T09:06:12;2;2;
69123;PMS5003;56232;53.384;-2.732;2023-03-01T09:08:38;5;4;
69123;PMS5003;56232;53.384;-2.732;2023-03-01T09:11:04;4;4;
69123;PMS5003;56232;53.384;-2.732;2023-03-01T09:13:29;10;9;
69123;PMS5003;56232;53.384;-2.732;2023-03-01T09:15:55;9;8;
69123;PMS5003;56232;53.384;-2.732;2023-03-01T09:18:21;6;5;
69123;PMS5003;56232;53.384;-2.732;2023-03-01T09:20:46;5;5;
69123;PMS5003;56232;53.384;-2.732;2023-03-01T09:23:12;9;8;
69123;PMS5003;56232;53.384;-2.732;2023-03-01T09:25:38;6;6;
69123;PMS5003;56232;53.384;-2.732;2023-03-01T09:28:04;6;5;
69123;PMS5003;56232;53.384;-2.732;2023-03-01T09:30:29;7;7;
69123;PMS5003;56232;53.384;-2.732;2023-03-01T09:32:56;7;6;
69123;PMS5003;56232;53.384;-2.732;2023-03-01T09:35:21;3;3;
69123;PMS5003;56232;53.384;-2.732;2023-03-01T09:37:47;9;9;
69123;PMS5003;56232;53.384;-2.732;2023-03-01T09:40:14;5;5;
69123;PMS5003;56232;53.384;-2.732;2023-03-01T09:42:44;6;6;
69123;PMS5003;56232;53.384;-2.732;2023-03-01T09:45:05;6;4;
69123;PMS5003;56232;53.384;-2.732;2023-03-01T09:47:30;3;3;
69123;PMS5003;56232;53.384;-2.732;2023-03-01T09:49:58;3;3;
69123;PMS5003;56232;53.384;-2.732;2023-03-01T09:52:23;4;3;
69123;PMS5003;56232;53.384;-2.732;2023-03-01T09:54:47;3;3;
69123;PMS5003;56232;53.384;-2.732;2023-03-01T09:57:15;3;3;
69123;PMS5003;56232;53.384;-2.732;2023-03-01T09:59:43;2;2;
69123;PMS5003;56232;53.384;-2.732;2023-03-01T10:02:11;1;1;
69123;PMS5003;56232;53.384;-2.732;2023-03-01T10:04:34;1;1;
69123;PMS5003;56232;53.384;-2.732;2023-03-01T10:07:00;1;1;
69123;PMS5003;56232;53.384;-2.732;2023-03-01T10:09:21;1;1;
69123;PMS5003;56232;53.384;-2.732;2023-03-01T10:11:47;3;2;
69123;PMS5003;56232;53.384;-2.732;2023-03-01T10:14:15;2;2;
69123;PMS5003;56232;53.384;-2.732;2023-03-01T10:16:40;1;1;
69123;PMS5003;56232;53.384;-2.732;2023-03-01T10:19:04;1;1;
69123;PMS5003;56232;53.384;-2.732;2023-03-01T10:21:30;0;0;
69123;PMS5003;56232;53.384;-2.732;2023-03-01T10:23:55;0;0;
69123;PMS5003;56232;53.384;-2.732;2023-03-01T10:26:24;2;1;
69123;PMS5003;56232;53.384;-2.732;2023-03-01T10:28:49;1;1;
69123;PMS5003;56232;53.384;-2.732;2023-03-01T10:31:13;2;2;
69123;PMS5003;56232;53.384;-2.732;2023-03-01T10:33:38;2;2;
69123;PMS5003;56232;53.384;-2.732;2023-03-01T10:36:04;3;1;
69123;PMS5003;56232;53.384;-2.732;2023-03-01T10:38:30;2;2;
69123;PMS5003;56232;53.384;-2.732;2023-03-01T10:40:56;1;1;
69123;PMS5003;56232;53.384;-2.732;2023-03-01T10:43:21;1;1;
69123;PMS5003;56232;53.384;-2.732;2023-03-01T10:45:47;1;1;
69123;PMS5003;56232;53.384;-2.732;2023-03-01T10:48:13;4;1;
69123;PMS5003;56232;53.384;-2.732;2023-03-01T10:50:38;2;1;
69123;PMS5003;56232;53.384;-2.732;2023-03-01T10:53:04;1;1;
69123;PMS5003;56232;53.384;-2.732;2023-03-01T10:55:31;2;2;
69123;PMS5003;56232;53.384;-2.732;2023-03-01T11:00:23;0;0;
69123;PMS5003;56232;53.384;-2.732;2023-03-01T11:02:47;0;0;
69123;PMS5003;56232;53.384;-2.732;2023-03-01T11:05:16;0;0;
69123;PMS5003;56232;53.384;-2.732;2023-03-01T11:12:29;1;0;
69123;PMS5003;56232;53.384;-2.732;2023-03-01T11:14:55;1;1;
69123;PMS5003;56232;53.384;-2.732;2023-03-01T11:17:21;0;0;
69123;PMS5003;56232;53.384;-2.732;2023-03-01T11:19:49;1;1;
69123;PMS5003;56232;53.384;-2.732;2023-03-01T11:22:13;1;1;
69123;PMS5003;56232;53.384;-2.732;2023-03-01T11:24:39;2;2;
69123;PMS5003;56232;53.384;-2.732;2023-03-01T11:27:12;1;1;
69123;PMS5003;56232;53.384;-2.732;2023-03-01T11:29:31;1;1;
69123;PMS5003;56232;53.384;-2.732;2023-03-01T11:31:56;2;2;
69123;PMS5003;56232;53.384;-2.732;2023-03-01T11:34:23;3;2;
69123;PMS5003;56232;53.384;-2.732;2023-03-01T11:36:48;2;1;
69123;PMS5003;56232;53.384;-2.732;2023-03-01T11:39:15;2;2;
69123;PMS5003;56232;53.384;-2.732;2023-03-01T11:41:38;2;2;
69123;PMS5003;56232;53.384;-2.732;2023-03-01T11:44:05;0;0;
69123;PMS5003;56232;53.384;-2.732;2023-03-01T11:46:34;2;1;
69123;PMS5003;56232;53.384;-2.732;2023-03-01T11:48:57;1;1;
69123;PMS5003;56232;53.384;-2.732;2023-03-01T11:51:23;4;3;
69123;PMS5003;56232;53.384;-2.732;2023-03-01T11:53:50;2;2;
69123;PMS5003;56232;53.384;-2.732;2023-03-01T11:56:16;3;3;
69123;PMS5003;56232;53.384;-2.732;2023-03-01T11:58:43;1;1;
69123;PMS5003;56232;53.384;-2.732;2023-03-01T12:01:08;1;1;
69123;PMS5003;56232;53.384;-2.732;2023-03-01T12:03:31;1;1;
69123;PMS5003;56232;53.384;-2.732;2023-03-01T12:08:22;1;1;
69123;PMS5003;56232;53.384;-2.732;2023-03-01T12:10:48;1;1;
69123;PMS5003;56232;53.384;-2.732;2023-03-01T12:13:17;1;1;
69123;PMS5003;56232;53.384;-2.732;2023-03-01T12:15:41;0;0;
69123;PMS5003;56232;53.384;-2.732;2023-03-01T12:18:08;1;1;
69123;PMS5003;56232;53.384;-2.732;2023-03-01T12:20:31;0;0;
69123;PMS5003;56232;53.384;-2.732;2023-03-01T12:22:59;1;1;
69123;PMS5003;56232;53.384;-2.732;2023-03-01T12:25:22;1;0;
69123;PMS5003;56232;53.384;-2.732;2023-03-01T12:27:51;1;1;
69123;PMS5003;56232;53.384;-2.732;2023-03-01T12:30:16;0;0;
69123;PMS5003;56232;53.384;-2.732;2023-03-01T12:32:40;1;1;
69123;PMS5003;56232;53.384;-2.732;2023-03-01T12:37:32;1;1;
69123;PMS5003;56232;53.384;-2.732;2023-03-01T12:39:59;2;2;
69123;PMS5003;56232;53.384;-2.732;2023-03-01T12:42:22;2;1;
69123;PMS5003;56232;53.384;-2.732;2023-03-01T12:44:50;1;1;
69123;PMS5003;56232;53.384;-2.732;2023-03-01T12:47:15;2;1;
69123;PMS5003;56232;53.384;-2.732;2023-03-01T12:49:39;2;2;
69123;PMS5003;56232;53.384;-2.732;2023-03-01T12:52:07;1;1;
69123;PMS5003;56232;53.384;-2.732;2023-03-01T12:54:29;2;2;
69123;PMS5003;56232;53.384;-2.732;2023-03-01T12:56:55;2;2;
69123;PMS5003;56232;53.384;-2.732;2023-03-01T12:59:21;1;1;
69123;PMS5003;56232;53.384;-2.732;2023-03-01T13:01:48;2;1;
69123;PMS5003;56232;53.384;-2.732;2023-03-01T13:04:14;2;2;
69123;PMS5003;56232;53.384;-2.732;2023-03-01T13:06:40;1;1;
69123;PMS5003;56232;53.384;-2.732;2023-03-01T13:09:06;1;1;
69123;PMS5003;56232;53.384;-2.732;2023-03-01T13:11:29;1;1;
69123;PMS5003;56232;53.384;-2.732;2023-03-01T13:16:22;2;2;
69123;PMS5003;56232;53.384;-2.732;2023-03-01T13:18:46;5;3;
69123;PMS5003;56232;53.384;-2.732;2023-03-01T13:21:12;1;1;
69123;PMS5003;56232;53.384;-2.732;2023-03-01T13:23:38;2;2;
69123;PMS5003;56232;53.384;-2.732;2023-03-01T13:26:05;1;1;
69123;PMS5003;56232;53.384;-2.732;2023-03-01T13:28:38;2;2;
69123;PMS5003;56232;53.384;-2.732;2023-03-01T13:30:55;0;0;
69123;PMS5003;56232;53.384;-2.732;2023-03-01T13:35:46;1;1;
69123;PMS5003;56232;53.384;-2.732;2023-03-01T13:45:34;0;0;
69123;PMS5003;56232;53.384;-2.732;2023-03-01T13:47:56;1;1;
69123;PMS5003;56232;53.384;-2.732;2023-03-01T13:50:21;0;0;
69123;PMS5003;56232;53.384;-2.732;2023-03-01T13:52:48;0;0;
69123;PMS5003;56232;53.384;-2.732;2023-03-01T13:55:16;1;1;
69123;PMS5003;56232;53.384;-2.732;2023-03-01T13:57:38;1;1;
69123;PMS5003;56232;53.384;-2.732;2023-03-01T14:00:04;1;1;
69123;PMS5003;56232;53.384;-2.732;2023-03-01T14:02:29;2;1;
69123;PMS5003;56232;53.384;-2.732;2023-03-01T14:04:56;1;1;
69123;PMS5003;56232;53.384;-2.732;2023-03-01T14:07:21;0;0;
69123;PMS5003;56232;53.384;-2.732;2023-03-01T14:09:47;1;1;
69123;PMS5003;56232;53.384;-2.732;2023-03-01T14:12:15;1;1;
69123;PMS5003;56232;53.384;-2.732;2023-03-01T14:17:06;1;1;
69123;PMS5003;56232;53.384;-2.732;2023-03-01T14:19:29;0;0;
69123;PMS5003;56232;53.384;-2.732;2023-03-01T14:21:58;1;1;
69123;PMS5003;56232;53.384;-2.732;2023-03-01T14:24:21;2;1;
69123;PMS5003;56232;53.384;-2.732;2023-03-01T14:26:46;0;0;
69123;PMS5003;56232;53.384;-2.732;2023-03-01T14:31:38;1;1;
69123;PMS5003;56232;53.384;-2.732;2023-03-01T14:34:03;1;1;
69123;PMS5003;56232;53.384;-2.732;2023-03-01T14:36:32;2;2;
69123;PMS5003;56232;53.384;-2.732;2023-03-01T14:38:55;2;1;
69123;PMS5003;56232;53.384;-2.732;2023-03-01T14:41:21;2;1;
69123;PMS5003;56232;53.384;-2.732;2023-03-01T14:43:47;1;1;
69123;PMS5003;56232;53.384;-2.732;2023-03-01T14:46:16;2;1;
69123;PMS5003;56232;53.384;-2.732;2023-03-01T14:48:37;1;1;
69123;PMS5003;56232;53.384;-2.732;2023-03-01T14:51:04;1;1;
69123;PMS5003;56232;53.384;-2.732;2023-03-01T14:53:29;2;2;
69123;PMS5003;56232;53.384;-2.732;2023-03-01T14:55:55;0;0;
69123;PMS5003;56232;53.384;-2.732;2023-03-01T14:58:21;0;0;
69123;PMS5003;56232;53.384;-2.732;2023-03-01T15:00:46;2;1;
69123;PMS5003;56232;53.384;-2.732;2023-03-01T15:03:12;1;1;
69123;PMS5003;56232;53.384;-2.732;2023-03-01T15:05:37;2;2;
69123;PMS5003;56232;53.384;-2.732;2023-03-01T15:08:03;2;2;
69123;PMS5003;56232;53.384;-2.732;2023-03-01T15:10:29;2;1;
69123;PMS5003;56232;53.384;-2.732;2023-03-01T15:12:54;2;1;
69123;PMS5003;56232;53.384;-2.732;2023-03-01T15:15:22;1;1;
69123;PMS5003;56232;53.384;-2.732;2023-03-01T15:17:48;0;0;
69123;PMS5003;56232;53.384;-2.732;2023-03-01T15:20:15;2;2;
69123;PMS5003;56232;53.384;-2.732;2023-03-01T15:22:37;3;3;
69123;PMS5003;56232;53.384;-2.732;2023-03-01T15:25:03;2;2;
69123;PMS5003;56232;53.384;-2.732;2023-03-01T15:27:28;2;2;
69123;PMS5003;56232;53.384;-2.732;2023-03-01T15:29:54;4;3;
69123;PMS5003;56232;53.384;-2.732;2023-03-01T15:32:24;3;3;
69123;PMS5003;56232;53.384;-2.732;2023-03-01T15:34:45;2;2;
69123;PMS5003;56232;53.384;-2.732;2023-03-01T15:39:38;2;2;
69123;PMS5003;56232;53.384;-2.732;2023-03-01T15:42:03;1;1;
69123;PMS5003;56232;53.384;-2.732;2023-03-01T15:44:29;2;2;
69123;PMS5003;56232;53.384;-2.732;2023-03-01T15:46:54;0;0;
69123;PMS5003;56232;53.384;-2.732;2023-03-01T15:49:24;2;2;
69123;PMS5003;56232;53.384;-2.732;2023-03-01T15:51:45;2;2;
69123;PMS5003;56232;53.384;-2.732;2023-03-01T15:54:13;2;2;
69123;PMS5003;56232;53.384;-2.732;2023-03-01T15:56:37;3;3;
69123;PMS5003;56232;53.384;-2.732;2023-03-01T15:59:02;2;2;
69123;PMS5003;56232;53.384;-2.732;2023-03-01T16:01:28;3;2;
69123;PMS5003;56232;53.384;-2.732;2023-03-01T16:03:54;2;2;
69123;PMS5003;56232;53.384;-2.732;2023-03-01T16:06:19;1;1;
69123;PMS5003;56232;53.384;-2.732;2023-03-01T16:08:45;3;2;
69123;PMS5003;56232;53.384;-2.732;2023-03-01T16:11:13;1;1;
69123;PMS5003;56232;53.384;-2.732;2023-03-01T16:13:37;0;0;
69123;PMS5003;56232;53.384;-2.732;2023-03-01T16:16:02;2;2;
69123;PMS5003;56232;53.384;-2.732;2023-03-01T16:18:28;2;1;
69123;PMS5003;56232;53.384;-2.732;2023-03-01T16:20:54;2;2;
69123;PMS5003;56232;53.384;-2.732;2023-03-01T16:23:20;3;2;
69123;PMS5003;56232;53.384;-2.732;2023-03-01T16:25:45;3;3;
69123;PMS5003;56232;53.384;-2.732;2023-03-01T16:28:11;1;1;
69123;PMS5003;56232;53.384;-2.732;2023-03-01T16:30:37;2;2;
69123;PMS5003;56232;53.384;-2.732;2023-03-01T16:33:03;2;2;
69123;PMS5003;56232;53.384;-2.732;2023-03-01T16:35:28;4;2;
69123;PMS5003;56232;53.384;-2.732;2023-03-01T16:37:54;3;3;
69123;PMS5003;56232;53.384;-2.732;2023-03-01T16:40:20;3;3;
69123;PMS5003;56232;53.384;-2.732;2023-03-01T16:42:46;2;2;
69123;PMS5003;56232;53.384;-2.732;2023-03-01T16:45:11;2;2;
69123;PMS5003;56232;53.384;-2.732;2023-03-01T16:47:37;1;1;
69123;PMS5003;56232;53.384;-2.732;2023-03-01T16:50:03;1;1;
69123;PMS5003;56232;53.384;-2.732;2023-03-01T16:52:28;1;1;
69123;PMS5003;56232;53.384;-2.732;2023-03-01T16:54:54;0;0;
69123;PMS5003;56232;53.384;-2.732;2023-03-01T16:57:19;5;3;
69123;PMS5003;56232;53.384;-2.732;2023-03-01T16:59:44;2;1;
69123;PMS5003;56232;53.384;-2.732;2023-03-01T17:02:11;1;1;